Time;durP1;ratioP1;P1;durP2;ratioP2;P2;SDS_P1;SDS_P2;PMS_P1;PMS_P2;Temp;Humidity;BMP_temperature;BMP_pressure;BME280_temperature;BME280_humidity;BME280_pressure;Samples;Min_cycle;Max_cycle;Signal;HPM_P1;HPM_P2
2023/04/03 00:02:07;;;;;;;4.93;1.73;;;2.30;99.90;;;;;;6133650;23;20014;-83
2023/04/03 00:04:33;;;;;;;2.78;1.30;;;2.50;99.90;;;;;;6160962;23;20009;-83
2023/04/03 00:06:59;;;;;;;4.40;1.65;;;2.20;99.90;;;;;;6136240;23;20036;-83
2023/04/03 00:09:24;;;;;;;3.08;1.40;;;2.20;99.90;;;;;;6158514;23;20350;-83
2023/04/03 00:11:50;;;;;;;5.13;1.45;;;2.10;99.90;;;;;;6104108;23;20060;-83
2023/04/03 00:14:16;;;;;;;3.47;1.73;;;2.10;99.90;;;;;;6128422;23;20349;-83
2023/04/03 00:16:44;;;;;;;3.13;1.30;;;2.10;99.90;;;;;;6128635;23;20092;-84
2023/04/03 00:19:11;;;;;;;2.95;1.58;;;2.10;99.90;;;;;;6128122;23;20404;-84
2023/04/03 00:21:37;;;;;;;3.30;1.65;;;2.00;99.90;;;;;;6103140;23;20088;-83
2023/04/03 00:24:03;;;;;;;5.10;1.60;;;2.00;99.90;;;;;;6102898;23;20033;-83
2023/04/03 00:26:29;;;;;;;3.75;1.65;;;1.90;99.90;;;;;;6126966;23;20325;-84
2023/04/03 00:28:55;;;;;;;4.60;1.60;;;1.90;99.90;;;;;;6153930;23;20009;-83
2023/04/03 00:31:22;;;;;;;4.28;1.67;;;1.90;99.90;;;;;;6103078;23;20025;-83
2023/04/03 00:33:47;;;;;;;5.05;1.70;;;1.90;99.90;;;;;;6127432;23;20013;-83
2023/04/03 00:36:19;;;;;;;4.80;1.75;;;1.80;99.90;;;;;;6128470;23;20016;-83
2023/04/03 00:38:44;;;;;;;5.03;1.75;;;1.80;99.90;;;;;;6128287;23;20017;-83
2023/04/03 00:41:10;;;;;;;4.60;2.13;;;1.70;99.90;;;;;;6104320;23;20314;-83
2023/04/03 00:43:36;;;;;;;5.75;2.05;;;1.70;99.90;;;;;;6129035;23;20049;-82
2023/04/03 00:46:02;;;;;;;3.83;1.60;;;1.40;99.90;;;;;;6104604;23;20017;-81
2023/04/03 00:48:34;;;;;;;4.60;1.88;;;1.70;99.90;;;;;;6128877;23;20013;-82
2023/04/03 00:51:02;;;;;;;3.92;1.70;;;1.70;99.90;;;;;;6155080;23;20089;-82
2023/04/03 00:53:37;;;;;;;8.13;2.10;;;1.60;99.90;;;;;;6123727;23;20014;-82
2023/04/03 00:56:08;;;;;;;5.00;2.13;;;1.50;99.90;;;;;;6123297;23;20069;-82
2023/04/03 00:58:39;;;;;;;3.60;1.90;;;1.50;99.90;;;;;;6123562;23;20021;-81
2023/04/03 01:01:11;;;;;;;5.82;2.47;;;1.50;99.90;;;;;;6123773;23;20017;-82
2023/04/03 01:03:37;;;;;;;3.83;1.88;;;1.40;99.90;;;;;;6124115;23;20057;-82
2023/04/03 01:06:03;;;;;;;6.40;2.20;;;1.40;99.90;;;;;;6123581;23;20014;-82
2023/04/03 01:08:29;;;;;;;4.43;1.90;;;1.30;99.90;;;;;;6123728;23;20085;-82
2023/04/03 01:10:55;;;;;;;5.78;2.30;;;1.30;99.90;;;;;;6124942;23;20012;-81
2023/04/03 01:13:27;;;;;;;5.90;2.15;;;1.20;99.90;;;;;;6124094;23;20085;-81
2023/04/03 01:15:53;;;;;;;5.88;2.00;;;1.20;99.90;;;;;;6123784;23;20006;-82
2023/04/03 01:18:19;;;;;;;5.45;2.28;;;1.10;99.90;;;;;;6125533;23;20010;-82
2023/04/03 01:21:07;;;;;;;4.72;2.20;;;1.10;99.90;;;;;;6123186;23;20104;-82
2023/04/03 01:23:44;;;;;;;5.18;2.10;;;1.10;99.90;;;;;;6125275;23;20010;-81
2023/04/03 01:26:11;;;;;;;5.53;2.30;;;1.10;99.90;;;;;;6122673;23;20084;-81
2023/04/03 01:28:43;;;;;;;4.28;1.95;;;1.00;99.90;;;;;;6125199;23;20017;-82
2023/04/03 01:31:49;;;;;;;6.43;2.45;;;1.00;99.90;;;;;;6125142;23;20038;-82
2023/04/03 01:34:15;;;;;;;7.95;2.63;;;1.00;99.90;;;;;;6124027;23;20026;-82
2023/04/03 01:36:41;;;;;;;5.50;2.30;;;0.90;99.90;;;;;;6125066;23;20503;-82
2023/04/03 01:39:10;;;;;;;7.07;2.50;;;0.90;99.90;;;;;;6124377;23;20319;-81
2023/04/03 01:41:35;;;;;;;10.15;2.53;;;0.90;99.90;;;;;;6098837;23;20022;-82
2023/04/03 01:44:01;;;;;;;8.70;2.45;;;0.90;99.90;;;;;;6124971;23;20093;-82
2023/04/03 01:46:27;;;;;;;6.13;2.13;;;0.90;99.90;;;;;;6125053;23;20449;-82
2023/04/03 01:48:52;;;;;;;8.20;2.90;;;0.90;99.90;;;;;;6123257;23;20014;-82
2023/04/03 01:51:18;;;;;;;6.85;2.20;;;0.80;99.90;;;;;;6098460;23;20322;-82
2023/04/03 01:53:43;;;;;;;7.20;2.92;;;0.80;99.90;;;;;;6122347;23;20045;-82
2023/04/03 01:56:09;;;;;;;6.93;2.50;;;0.80;99.90;;;;;;6123078;23;20037;-82
2023/04/03 01:58:35;;;;;;;5.50;2.30;;;0.80;99.90;;;;;;6123406;23;20014;-82
2023/04/03 02:01:01;;;;;;;9.40;2.95;;;0.80;99.90;;;;;;6125444;23;20025;-82
2023/04/03 02:03:27;;;;;;;5.60;2.42;;;0.70;99.90;;;;;;6125034;23;20006;-82
2023/04/03 02:05:52;;;;;;;4.88;2.33;;;0.70;99.90;;;;;;6123423;23;20014;-82
2023/04/03 02:08:18;;;;;;;5.43;2.85;;;0.70;99.90;;;;;;6124691;23;20018;-82
2023/04/03 02:10:46;;;;;;;8.77;2.65;;;0.70;99.90;;;;;;6123211;23;20010;-82
2023/04/03 02:13:12;;;;;;;6.57;2.90;;;0.70;99.90;;;;;;6099080;23;20041;-82
2023/04/03 02:15:39;;;;;;;5.95;2.80;;;0.70;99.90;;;;;;6099245;23;20010;-82
2023/04/03 02:18:05;;;;;;;8.15;2.97;;;0.70;99.90;;;;;;6123344;23;20050;-82
2023/04/03 02:20:31;;;;;;;7.60;2.80;;;0.70;99.90;;;;;;6125220;23;20017;-82
2023/04/03 02:22:56;;;;;;;7.93;2.65;;;0.60;99.90;;;;;;6125318;23;20018;-82
2023/04/03 02:25:22;;;;;;;7.63;2.47;;;0.70;99.90;;;;;;6129316;23;20508;-81
2023/04/03 02:27:47;;;;;;;8.13;3.03;;;0.50;99.90;;;;;;6129087;23;20511;-82
2023/04/03 02:30:14;;;;;;;6.40;2.38;;;0.50;99.90;;;;;;6129123;23;20018;-82
2023/04/03 02:32:41;;;;;;;7.50;2.75;;;0.50;99.90;;;;;;6126554;23;20105;-82
2023/04/03 02:35:10;;;;;;;7.22;2.80;;;0.50;99.90;;;;;;6125464;23;20006;-82
2023/04/03 02:37:39;;;;;;;6.15;2.60;;;0.40;99.90;;;;;;6122659;23;20196;-82
2023/04/03 02:40:06;;;;;;;6.57;2.83;;;0.40;99.90;;;;;;6124730;23;20025;-82
2023/04/03 02:42:31;;;;;;;7.22;2.92;;;0.40;99.90;;;;;;6124840;23;20014;-82
2023/04/03 02:44:57;;;;;;;11.75;3.60;;;0.30;99.90;;;;;;6098476;23;20491;-82
2023/04/03 02:47:23;;;;;;;6.65;2.85;;;0.30;99.90;;;;;;6098434;23;20173;-82
2023/04/03 02:49:48;;;;;;;7.97;2.75;;;0.30;99.90;;;;;;6124507;23;20018;-82
2023/04/03 02:52:14;;;;;;;6.47;3.30;;;0.20;99.90;;;;;;6121944;23;20014;-82
2023/04/03 02:54:40;;;;;;;8.32;2.78;;;0.20;99.90;;;;;;6098168;23;20028;-82
2023/04/03 02:57:09;;;;;;;12.02;3.47;;;0.20;99.90;;;;;;6122650;23;20014;-82
2023/04/03 02:59:40;;;;;;;8.55;3.08;;;0.20;99.90;;;;;;6122498;23;20021;-82
2023/04/03 03:02:09;;;;;;;6.95;2.95;;;0.10;99.90;;;;;;6097931;23;20076;-82
2023/04/03 03:04:35;;;;;;;8.30;3.13;;;0.10;99.90;;;;;;6124580;23;20025;-82
2023/04/03 03:07:02;;;;;;;8.88;3.60;;;0.00;99.90;;;;;;6122090;23;20021;-82
2023/04/03 03:09:29;;;;;;;7.68;2.95;;;0.00;99.90;;;;;;6122305;23;20453;-82
2023/04/03 03:11:55;;;;;;;6.97;3.17;;;-0.10;99.90;;;;;;6124438;23;20449;-81
2023/04/03 03:14:21;;;;;;;12.27;3.20;;;-0.10;99.90;;;;;;6122612;23;20017;-83
2023/04/03 03:16:46;;;;;;;8.05;3.17;;;-0.20;99.90;;;;;;6123086;23;20021;-82
2023/04/03 03:19:12;;;;;;;7.65;3.30;;;-0.20;99.90;;;;;;6124296;23;20013;-82
2023/04/03 03:21:37;;;;;;;6.50;2.72;;;-0.20;99.90;;;;;;6121938;23;20340;-82
2023/04/03 03:24:03;;;;;;;11.05;3.70;;;-0.30;99.90;;;;;;6122770;23;20014;-83
2023/04/03 03:26:29;;;;;;;8.20;3.70;;;-0.30;99.90;;;;;;6122990;23;20477;-82
2023/04/03 03:28:54;;;;;;;11.02;3.33;;;-0.30;99.90;;;;;;6125049;23;20045;-82
2023/04/03 03:31:20;;;;;;;8.68;3.70;;;-0.30;99.90;;;;;;6124659;23;20014;-82
2023/04/03 03:33:46;;;;;;;7.35;3.15;;;-0.30;99.90;;;;;;6122189;23;20010;-82
2023/04/03 03:36:11;;;;;;;9.70;3.22;;;-0.40;99.90;;;;;;6123660;23;20028;-82
2023/04/03 03:38:37;;;;;;;6.90;3.40;;;-0.40;99.90;;;;;;6122415;23;20476;-82
2023/04/03 03:41:03;;;;;;;10.90;3.28;;;-0.40;99.90;;;;;;6122162;23;20014;-82
2023/04/03 03:43:29;;;;;;;10.27;3.38;;;-0.40;99.90;;;;;;6124153;23;20164;-82
2023/04/03 03:45:54;;;;;;;11.80;3.90;;;-0.40;99.90;;;;;;6097953;23;20041;-82
2023/04/03 03:48:24;;;;;;;10.50;3.85;;;-0.40;99.90;;;;;;6097369;23;20022;-82
2023/04/03 03:50:50;;;;;;;10.65;3.67;;;-0.40;99.90;;;;;;6121500;23;20010;-81
2023/04/03 03:53:16;;;;;;;7.88;3.83;;;-0.40;99.90;;;;;;6122080;23;20028;-82
2023/04/03 03:55:42;;;;;;;7.00;3.38;;;-0.40;99.90;;;;;;6122056;23;20018;-82
2023/04/03 03:58:08;;;;;;;9.85;4.13;;;-0.40;99.90;;;;;;6123543;23;20010;-82
2023/04/03 04:00:33;;;;;;;10.20;4.10;;;-0.40;99.90;;;;;;6122058;23;20014;-82
2023/04/03 04:02:59;;;;;;;11.75;4.07;;;-0.40;99.90;;;;;;6121816;23;20009;-82
2023/04/03 04:05:24;;;;;;;11.93;3.92;;;-0.30;99.90;;;;;;6096999;23;20024;-82
2023/04/03 04:07:50;;;;;;;7.72;3.63;;;0.30;99.90;;;;;;6097462;23;20020;-82
2023/04/03 04:10:16;;;;;;;9.23;3.67;;;-0.30;99.90;;;;;;6121991;23;20010;-82
2023/04/03 04:12:42;;;;;;;11.38;4.00;;;-0.30;99.90;;;;;;6122031;23;20333;-82
2023/04/03 04:15:08;;;;;;;9.70;3.50;;;-0.30;99.90;;;;;;6122009;23;20088;-82
2023/04/03 04:17:35;;;;;;;7.93;4.00;;;-0.30;99.90;;;;;;6122761;23;20381;-81
2023/04/03 04:20:01;;;;;;;9.27;5.35;;;-0.30;99.90;;;;;;6121551;23;20014;-80
2023/04/03 04:22:26;;;;;;;10.57;4.45;;;-0.20;99.90;;;;;;6124005;23;20397;-81
2023/04/03 04:24:52;;;;;;;10.25;5.55;;;-0.30;99.90;;;;;;6123976;23;20033;-82
2023/04/03 04:27:18;;;;;;;37.17;22.77;;;-0.40;99.90;;;;;;6122414;23;20018;-81
2023/04/03 04:29:43;;;;;;;21.23;15.00;;;-0.40;99.90;;;;;;6124059;23;20365;-81
2023/04/03 04:32:09;;;;;;;9.77;4.50;;;-0.40;99.90;;;;;;6124107;23;20014;-82
2023/04/03 04:34:34;;;;;;;11.07;4.35;;;-0.40;99.90;;;;;;6121351;23;20017;-81
2023/04/03 04:37:00;;;;;;;11.55;4.90;;;-0.40;99.90;;;;;;6124016;23;20081;-79
2023/04/03 04:39:26;;;;;;;17.30;14.60;;;-0.40;99.90;;;;;;6121967;23;20194;-81
2023/04/03 04:41:55;;;;;;;16.80;10.20;;;-0.40;99.90;;;;;;6097453;23;20024;-82
2023/04/03 04:44:20;;;;;;;7.28;4.20;;;-0.40;99.90;;;;;;6122373;23;20006;-81
2023/04/03 04:46:46;;;;;;;11.07;4.72;;;-0.40;99.90;;;;;;6121129;23;20018;-82
2023/04/03 04:49:12;;;;;;;10.90;4.90;;;0.20;99.90;;;;;;6094848;23;20369;-84
2023/04/03 04:51:37;;;;;;;11.85;5.30;;;-0.40;99.90;;;;;;6096998;23;20018;-81
2023/04/03 04:54:03;;;;;;;10.18;4.60;;;-0.50;99.90;;;;;;6126497;23;20010;-81
2023/04/03 04:56:29;;;;;;;7.68;4.28;;;-0.50;99.90;;;;;;6101404;23;20052;-82
2023/04/03 04:58:54;;;;;;;9.43;4.53;;;-0.40;99.90;;;;;;6126109;23;20014;-82
2023/04/03 05:01:20;;;;;;;9.90;5.53;;;-0.50;99.90;;;;;;6102056;23;20009;-81
2023/04/03 05:03:47;;;;;;;16.52;8.35;;;-0.50;99.90;;;;;;6125949;23;20014;-81
2023/04/03 05:06:13;;;;;;;17.42;11.68;;;-0.50;99.90;;;;;;6126144;23;20336;-82
2023/04/03 05:08:38;;;;;;;22.80;13.80;;;-0.50;99.90;;;;;;6102420;23;20014;-82
2023/04/03 05:11:04;;;;;;;13.43;5.05;;;-0.60;99.90;;;;;;6126455;23;20005;-81
2023/04/03 05:13:30;;;;;;;23.00;13.95;;;-0.60;99.90;;;;;;6102211;23;20013;-80
2023/04/03 05:15:55;;;;;;;20.85;11.98;;;-0.60;99.90;;;;;;6102190;23;20006;-81
2023/04/03 05:18:23;;;;;;;17.83;9.02;;;-0.60;99.90;;;;;;6150858;23;20013;-80
2023/04/03 05:20:52;;;;;;;33.65;21.67;;;-0.60;99.90;;;;;;6153097;23;20013;-81
2023/04/03 05:23:18;;;;;;;12.15;5.53;;;-0.60;99.90;;;;;;6101915;23;20467;-81
2023/04/03 05:25:45;;;;;;;12.85;5.75;;;-0.70;99.90;;;;;;6126945;23;20072;-81
2023/04/03 05:28:11;;;;;;;12.45;6.13;;;-0.60;99.90;;;;;;6154821;23;20045;-81
2023/04/03 05:30:39;;;;;;;18.58;7.95;;;-0.60;99.90;;;;;;6127106;23;20017;-83
2023/04/03 05:33:05;;;;;;;28.42;13.52;;;-0.60;99.90;;;;;;6154367;23;20074;-81
2023/04/03 05:35:32;;;;;;;15.85;6.80;;;-0.60;99.90;;;;;;6102849;23;20519;-82
2023/04/03 05:37:57;;;;;;;15.95;6.78;;;-0.50;99.90;;;;;;6101586;23;20025;-81
2023/04/03 05:40:23;;;;;;;49.25;20.83;;;-0.50;99.90;;;;;;6101386;23;20014;-82
2023/04/03 05:42:48;;;;;;;28.25;12.32;;;-0.50;99.90;;;;;;6125649;23;20084;-82
2023/04/03 05:45:14;;;;;;;33.22;15.00;;;-0.50;99.90;;;;;;6123842;23;20040;-81
2023/04/03 05:47:40;;;;;;;32.55;15.25;;;-0.50;99.90;;;;;;6100952;23;20016;-82
2023/04/03 05:50:09;;;;;;;13.18;5.88;;;-0.50;99.90;;;;;;6125778;23;20009;-82
2023/04/03 05:52:41;;;;;;;10.07;5.72;;;-0.40;99.90;;;;;;6096307;23;20025;-81
2023/04/03 05:55:07;;;;;;;31.23;13.82;;;-0.30;99.90;;;;;;6097830;23;20013;-82
2023/04/03 05:57:33;;;;;;;17.92;7.78;;;-0.30;99.90;;;;;;6098846;23;20014;-82
2023/04/03 05:59:59;;;;;;;14.77;6.72;;;-0.20;99.90;;;;;;6098432;23;20061;-82
2023/04/03 06:02:25;;;;;;;13.20;6.70;;;-0.20;99.90;;;;;;6123957;23;20014;-82
2023/04/03 06:04:54;;;;;;;12.90;5.97;;;-0.10;99.90;;;;;;6123421;23;20095;-81
2023/04/03 06:07:22;;;;;;;12.18;6.07;;;0.00;99.90;;;;;;6123186;23;20014;-82
2023/04/03 06:09:55;;;;;;;17.08;5.65;;;0.00;99.90;;;;;;6098509;23;20464;-82
2023/04/03 06:12:24;;;;;;;21.20;8.82;;;0.10;99.90;;;;;;6122881;23;20104;-82
2023/04/03 06:14:50;;;;;;;17.73;9.05;;;0.10;99.90;;;;;;6098005;23;20045;-81
2023/04/03 06:17:17;;;;;;;17.90;6.40;;;0.20;99.90;;;;;;6123064;23;20084;-82
2023/04/03 06:19:44;;;;;;;12.98;5.10;;;0.40;99.90;;;;;;6124664;23;20025;-81
2023/04/03 06:22:11;;;;;;;10.75;5.05;;;0.70;99.90;;;;;;6123006;23;20307;-81
2023/04/03 06:24:40;;;;;;;13.13;5.80;;;1.60;99.90;;;;;;6123066;23;20021;-82
2023/04/03 06:27:05;;;;;;;11.20;5.95;;;2.30;99.90;;;;;;6122907;23;20010;-81
2023/04/03 06:29:31;;;;;;;13.57;5.78;;;3.90;99.90;;;;;;6122545;23;20045;-81
2023/04/03 06:31:57;;;;;;;13.00;5.45;;;5.10;99.90;;;;;;6122591;23;20039;-82
2023/04/03 06:34:23;;;;;;;15.27;6.50;;;6.80;99.90;;;;;;6122956;23;20029;-82
2023/04/03 06:36:50;;;;;;;11.73;4.57;;;6.90;99.90;;;;;;6122064;23;20088;-81
2023/04/03 06:39:23;;;;;;;8.93;4.13;;;6.50;99.90;;;;;;6098340;23;20029;-82
2023/04/03 06:41:50;;;;;;;8.23;3.95;;;5.40;99.90;;;;;;6122788;23;20017;-82
2023/04/03 06:44:16;;;;;;;7.75;3.70;;;4.70;99.90;;;;;;6124088;23;20021;-81
2023/04/03 06:46:43;;;;;;;11.98;4.35;;;4.10;99.90;;;;;;6121934;23;20019;-82
2023/04/03 06:49:09;;;;;;;9.77;4.00;;;3.50;99.90;;;;;;6123150;23;20017;-82
2023/04/03 06:51:39;;;;;;;10.60;3.95;;;3.20;99.90;;;;;;6124892;23;20014;-81
2023/04/03 06:54:09;;;;;;;20.75;11.90;;;3.00;99.90;;;;;;6153860;23;20014;-81
2023/04/03 06:56:41;;;;;;;11.23;4.20;;;3.00;99.90;;;;;;6103254;23;20088;-82
2023/04/03 06:59:07;;;;;;;12.38;4.25;;;3.00;99.90;;;;;;6126037;23;20064;-81
2023/04/03 07:01:35;;;;;;;9.07;4.43;;;3.10;99.90;;;;;;6127697;23;20017;-82
2023/04/03 07:04:01;;;;;;;11.40;4.15;;;3.10;99.90;;;;;;6154378;23;20021;-82
2023/04/03 07:06:27;;;;;;;9.65;3.78;;;3.00;99.90;;;;;;6105207;23;20014;-82
2023/04/03 07:08:52;;;;;;;10.80;4.43;;;2.90;99.90;;;;;;6133651;23;20020;-80
2023/04/03 07:11:18;;;;;;;7.63;4.22;;;3.10;99.90;;;;;;6133165;23;20013;-82
2023/04/03 07:13:44;;;;;;;11.05;4.53;;;2.90;99.90;;;;;;6133344;23;20014;-82
2023/04/03 07:16:09;;;;;;;8.40;4.45;;;2.90;99.90;;;;;;6128612;23;20175;-82
2023/04/03 07:18:35;;;;;;;8.98;4.00;;;2.90;99.90;;;;;;6154599;23;20013;-82
2023/04/03 07:21:02;;;;;;;11.52;4.28;;;2.90;99.90;;;;;;6153969;23;20345;-82
2023/04/03 07:23:28;;;;;;;9.77;4.10;;;3.00;99.90;;;;;;6127517;23;20021;-82
2023/04/03 07:25:54;;;;;;;7.82;4.10;;;3.00;99.90;;;;;;6102717;23;20021;-82
2023/04/03 07:28:22;;;;;;;11.30;4.78;;;3.10;99.90;;;;;;6101812;23;20020;-82
2023/04/03 07:31:01;;;;;;;11.65;4.13;;;3.10;99.90;;;;;;6127283;23;20014;-82
2023/04/03 07:33:26;;;;;;;10.00;5.00;;;3.10;99.90;;;;;;6127693;23;20013;-82
2023/04/03 07:35:52;;;;;;;10.32;3.85;;;3.20;99.90;;;;;;6127496;23;20009;-82
2023/04/03 07:38:18;;;;;;;11.30;4.22;;;3.20;99.90;;;;;;6102761;23;20348;-82
2023/04/03 07:40:48;;;;;;;9.57;3.45;;;3.20;99.90;;;;;;6103313;23;20002;-82
2023/04/03 07:43:18;;;;;;;8.15;3.50;;;3.30;99.90;;;;;;6126839;23;20085;-82
2023/04/03 07:45:44;;;;;;;7.22;3.55;;;3.30;99.90;;;;;;6102569;23;20005;-82
2023/04/03 07:48:11;;;;;;;10.77;4.50;;;3.30;99.90;;;;;;6102692;23;20412;-82
2023/04/03 07:50:40;;;;;;;9.93;3.78;;;3.20;99.90;;;;;;6153443;23;20337;-82
2023/04/03 07:53:08;;;;;;;10.68;3.70;;;3.30;99.90;;;;;;6121915;23;20018;-81
2023/04/03 07:55:40;;;;;;;13.45;3.35;;;3.40;99.90;;;;;;6121854;23;20080;-81
2023/04/03 07:58:06;;;;;;;10.60;3.85;;;3.40;99.90;;;;;;6122695;23;20017;-82
2023/04/03 08:00:31;;;;;;;10.35;4.10;;;3.90;99.90;;;;;;6122393;23;20050;-82
2023/04/03 08:02:57;;;;;;;11.90;3.65;;;3.50;99.90;;;;;;6097843;23;20025;-82
2023/04/03 08:05:22;;;;;;;9.27;3.67;;;3.50;99.90;;;;;;6123833;23;20433;-82
2023/04/03 08:07:48;;;;;;;7.80;3.83;;;3.50;99.90;;;;;;6122013;23;20021;-82
2023/04/03 08:10:14;;;;;;;12.70;5.05;;;3.60;99.90;;;;;;6096794;23;20018;-82
2023/04/03 08:12:41;;;;;;;9.73;5.20;;;3.70;99.90;;;;;;6122240;23;20006;-82
2023/04/03 08:15:10;;;;;;;7.20;2.90;;;3.70;99.90;;;;;;6123871;23;20016;-82
2023/04/03 08:17:39;;;;;;;8.30;3.28;;;3.70;99.90;;;;;;6122472;23;20113;-82
2023/04/03 08:20:10;;;;;;;8.65;3.30;;;3.90;99.90;;;;;;6123788;23;20009;-82
2023/04/03 08:22:35;;;;;;;7.13;3.10;;;3.90;99.90;;;;;;6097535;23;20014;-82
2023/04/03 08:25:01;;;;;;;7.03;2.75;;;4.00;99.90;;;;;;6121332;23;20021;-81
2023/04/03 08:27:28;;;;;;;7.68;2.97;;;3.90;99.90;;;;;;6097683;23;20073;-82
2023/04/03 08:29:54;;;;;;;9.18;3.40;;;3.90;99.90;;;;;;6122063;23;20057;-82
2023/04/03 08:32:20;;;;;;;8.65;3.47;;;4.00;99.90;;;;;;6122726;23;20032;-82
2023/04/03 08:34:46;;;;;;;9.45;3.53;;;4.10;99.90;;;;;;6124001;23;20014;-83
2023/04/03 08:37:11;;;;;;;7.75;3.60;;;4.10;99.90;;;;;;6097981;23;20018;-82
2023/04/03 08:39:37;;;;;;;9.80;3.22;;;4.20;99.90;;;;;;6097056;23;20053;-82
2023/04/03 08:42:14;;;;;;;8.60;3.17;;;4.20;99.90;;;;;;6121854;23;20057;-82
2023/04/03 08:44:54;;;;;;;6.43;2.97;;;4.30;99.90;;;;;;6122122;23;20010;-82
2023/04/03 08:47:24;;;;;;;6.28;4.18;;;4.40;99.90;;;;;;6122095;23;20089;-82
2023/04/03 08:50:02;;;;;;;7.13;2.92;;;4.50;99.90;;;;;;6097462;23;20010;-82
2023/04/03 08:52:38;;;;;;;7.80;3.08;;;4.50;99.90;;;;;;6126983;23;20041;-82
2023/04/03 08:55:07;;;;;;;7.47;2.88;;;4.80;99.90;;;;;;6126148;23;20022;-82
2023/04/03 08:57:40;;;;;;;6.13;3.25;;;4.70;99.90;;;;;;6101997;23;20344;-82
2023/04/03 09:00:31;;;;;;;5.93;2.95;;;4.80;99.90;;;;;;6102962;23;20088;-82
2023/04/03 09:02:56;;;;;;;5.60;2.63;;;5.00;99.90;;;;;;6128816;23;20115;-82
2023/04/03 09:05:44;;;;;;;6.13;2.83;;;5.20;99.90;;;;;;6103965;23;20029;-82
2023/04/03 09:08:39;;;;;;;6.65;3.10;;;5.30;99.90;;;;;;6103288;23;20013;-82
2023/04/03 09:11:41;;;;;;;6.63;2.60;;;5.30;99.90;;;;;;6125100;23;20013;-82
2023/04/03 09:14:16;;;;;;;5.03;2.08;;;5.40;99.90;;;;;;6128445;23;20037;-82
2023/04/03 09:17:00;;;;;;;7.93;2.30;;;5.80;99.90;;;;;;6103882;23;20037;-82
2023/04/03 09:19:32;;;;;;;5.82;2.03;;;6.40;99.90;;;;;;6128232;23;20444;-82
2023/04/03 09:22:20;;;;;;;6.93;2.08;;;7.00;99.90;;;;;;6154747;23;20334;-82
2023/04/03 09:24:49;;;;;;;6.38;2.17;;;7.70;99.90;;;;;;6127699;23;20089;-82
2023/04/03 09:27:15;;;;;;;4.53;1.90;;;8.20;99.00;;;;;;6128371;23;20107;-82
2023/04/03 09:29:45;;;;;;;6.35;2.30;;;8.50;97.80;;;;;;6154572;23;20402;-81
2023/04/03 09:32:35;;;;;;;6.32;2.00;;;8.70;96.30;;;;;;6128825;23;20090;-82
2023/04/03 09:35:30;;;;;;;5.25;2.03;;;9.20;95.20;;;;;;6103725;23;20084;-82
2023/04/03 09:38:10;;;;;;;5.25;2.00;;;9.30;93.70;;;;;;6127566;23;20314;-82
2023/04/03 09:40:38;;;;;;;3.78;1.77;;;9.00;95.60;;;;;;6128454;23;20072;-82
2023/04/03 09:43:35;;;;;;;5.20;1.75;;;8.50;95.80;;;;;;6128803;23;20014;-82
2023/04/03 09:46:39;;;;;;;5.50;1.80;;;7.80;98.10;;;;;;6154411;23;20018;-82
2023/04/03 09:49:06;;;;;;;5.18;1.90;;;7.10;95.10;;;;;;6007356;23;20468;-82
2023/04/03 09:51:32;;;;;;;6.15;1.73;;;6.90;94.30;;;;;;5982655;23;20034;-82
2023/04/03 09:53:58;;;;;;;5.20;1.92;;;6.70;96.20;;;;;;5982736;23;20506;-82
2023/04/03 09:56:31;;;;;;;4.13;1.85;;;6.80;97.50;;;;;;5960366;23;20016;-82
2023/04/03 09:58:59;;;;;;;4.88;1.55;;;6.90;98.30;;;;;;6006892;23;20090;-82
2023/04/03 10:01:29;;;;;;;5.45;2.00;;;6.90;95.20;;;;;;5983381;23;20011;-82
2023/04/03 10:04:11;;;;;;;4.82;1.60;;;7.00;95.20;;;;;;6006753;23;20079;-82
2023/04/03 10:06:43;;;;;;;3.92;1.65;;;6.80;95.90;;;;;;5982627;23;20016;-82
2023/04/03 10:09:30;;;;;;;3.40;1.75;;;6.90;99.50;;;;;;5983517;23;20143;-82
2023/04/03 10:12:10;;;;;;;3.75;1.60;;;7.00;95.70;;;;;;5960241;23;20012;-82
2023/04/03 10:14:40;;;;;;;5.50;1.88;;;7.00;95.50;;;;;;5983134;23;20027;-82
2023/04/03 10:17:19;;;;;;;6.43;1.83;;;7.00;95.60;;;;;;6006997;23;20022;-82
2023/04/03 10:19:52;;;;;;;5.60;1.80;;;7.20;97.30;;;;;;6006836;23;20020;-82
2023/04/03 10:22:55;;;;;;;5.28;1.73;;;7.30;96.10;;;;;;5983697;23;20014;-82
2023/04/03 10:25:43;;;;;;;4.65;1.58;;;7.50;97.70;;;;;;6074753;23;20061;-82
2023/04/03 10:28:18;;;;;;;5.40;1.80;;;7.60;94.20;;;;;;6074544;23;20054;-82
2023/04/03 10:31:06;;;;;;;7.07;1.95;;;7.60;94.40;;;;;;6098747;23;20077;-82
2023/04/03 10:34:19;;;;;;;5.15;1.90;;;7.60;96.50;;;;;;6074529;23;20072;-82
2023/04/03 10:36:49;;;;;;;4.05;1.40;;;7.60;95.00;;;;;;6085108;23;20014;-81
2023/04/03 10:39:28;;;;;;;5.20;2.05;;;7.60;92.50;;;;;;6098777;23;20069;-81
2023/04/03 10:42:02;;;;;;;6.05;1.55;;;7.70;93.00;;;;;;6100273;23;20021;-80
2023/04/03 10:44:45;;;;;;;2.83;1.65;;;7.90;96.70;;;;;;6076916;23;20100;-81
2023/04/03 10:47:28;;;;;;;4.05;1.60;;;8.00;93.80;;;;;;6081459;23;20018;-84
2023/04/03 10:50:02;;;;;;;5.07;1.92;;;7.80;94.10;;;;;;6109735;23;20303;-82
2023/04/03 10:52:47;;;;;;;4.70;1.73;;;7.70;92.10;;;;;;6116923;23;20025;-80
2023/04/03 10:55:13;;;;;;;6.82;2.03;;;7.50;93.20;;;;;;6111513;23;20068;-81
2023/04/03 10:57:40;;;;;;;3.50;1.70;;;7.50;93.30;;;;;;6129299;23;20455;-81
2023/04/03 11:00:28;;;;;;;5.75;1.70;;;7.60;92.50;;;;;;6105000;23;20418;-81
2023/04/03 11:03:02;;;;;;;3.20;1.40;;;7.60;92.60;;;;;;6126802;23;20024;-82
2023/04/03 11:05:36;;;;;;;3.65;1.50;;;7.70;91.30;;;;;;6153900;23;20010;-81
2023/04/03 11:08:10;;;;;;;2.83;1.30;;;7.80;91.60;;;;;;6127446;23;20104;-81
2023/04/03 11:10:46;;;;;;;3.15;1.33;;;7.70;90.50;;;;;;6154184;23;20096;-81
2023/04/03 11:13:17;;;;;;;3.33;1.40;;;7.80;91.00;;;;;;6103374;23;20014;-81
2023/04/03 11:15:46;;;;;;;2.65;1.40;;;8.10;92.00;;;;;;6127499;23;20439;-81
2023/04/03 11:18:41;;;;;;;2.58;1.40;;;8.30;92.50;;;;;;6127488;23;20026;-81
2023/04/03 11:21:45;;;;;;;2.70;1.30;;;8.50;90.30;;;;;;6127846;23;20017;-81
2023/04/03 11:24:22;;;;;;;;;;;8.60;89.50;;;;;;6128053;23;20111;-81
2023/04/03 11:26:49;;;;;;;3.33;1.40;;;8.60;88.20;;;;;;6103202;23;19917;-81
2023/04/03 11:29:21;;;;;;;3.65;1.50;;;8.50;86.60;;;;;;6127685;23;20460;-82
2023/04/03 11:32:01;;;;;;;4.30;1.55;;;8.30;88.60;;;;;;6103676;23;20014;-82
2023/04/03 11:34:31;;;;;;;3.53;1.55;;;8.30;90.10;;;;;;6127231;23;20009;-82
2023/04/03 11:37:01;;;;;;;38.47;16.60;;;8.60;90.70;;;;;;6128316;23;20073;-82
2023/04/03 11:39:31;;;;;;;34.00;20.08;;;8.50;89.30;;;;;;6102765;23;20512;-82
2023/04/03 11:42:17;;;;;;;5.20;2.05;;;8.50;88.50;;;;;;6127307;23;20370;-82
2023/04/03 11:44:43;;;;;;;6.93;2.60;;;8.40;90.10;;;;;;6127867;23;20017;-81
2023/04/03 11:47:11;;;;;;;6.25;1.67;;;8.50;90.00;;;;;;6127050;23;20153;-82
2023/04/03 11:49:59;;;;;;;4.30;1.60;;;8.60;90.70;;;;;;6126779;23;20010;-81
2023/04/03 11:52:40;;;;;;;5.70;3.05;;;8.60;90.30;;;;;;6122196;23;20049;-82
2023/04/03 11:55:30;;;;;;;4.28;1.80;;;8.90;92.00;;;;;;6098025;23;20064;-81
2023/04/03 11:58:11;;;;;;;5.97;1.60;;;9.00;93.00;;;;;;6122192;23;20017;-82
2023/04/03 12:00:49;;;;;;;5.35;1.90;;;9.10;90.30;;;;;;6122638;23;20075;-82
2023/04/03 12:03:30;;;;;;;3.40;1.52;;;9.20;89.00;;;;;;6123740;23;20041;-82
2023/04/03 12:06:05;;;;;;;3.85;1.77;;;9.40;91.60;;;;;;6124684;23;20018;-82
2023/04/03 12:08:44;;;;;;;6.22;1.75;;;9.60;93.80;;;;;;6121203;23;20028;-82
2023/04/03 12:11:10;;;;;;;4.93;1.52;;;9.70;90.20;;;;;;6122246;23;20017;-82
2023/04/03 12:13:56;;;;;;;7.30;2.03;;;9.70;90.60;;;;;;6097960;23;20010;-81
2023/04/03 12:16:34;;;;;;;5.07;2.10;;;9.60;88.90;;;;;;6122529;23;20018;-82
2023/04/03 12:19:22;;;;;;;3.45;1.60;;;9.50;89.20;;;;;;6097950;23;20136;-82
2023/04/03 12:22:08;;;;;;;4.18;1.63;;;9.40;88.30;;;;;;6073194;23;20174;-82
2023/04/03 12:24:36;;;;;;;4.43;1.77;;;9.30;85.40;;;;;;6122722;23;20018;-82
2023/04/03 12:27:34;;;;;;;4.65;1.63;;;9.20;86.90;;;;;;6097854;23;20113;-82
2023/04/03 12:30:04;;;;;;;4.85;1.70;;;9.20;89.40;;;;;;6124005;23;20287;-82
2023/04/03 12:32:54;;;;;;;4.22;2.17;;;9.40;91.00;;;;;;6123070;23;20010;-82
2023/04/03 12:35:43;;;;;;;4.50;1.55;;;9.40;85.30;;;;;;6123410;23;20010;-82
2023/04/03 12:38:34;;;;;;;3.63;1.70;;;9.20;84.60;;;;;;6099664;23;20097;-81
2023/04/03 12:41:11;;;;;;;4.90;1.80;;;9.10;83.30;;;;;;6124183;23;20014;-82
2023/04/03 12:44:04;;;;;;;4.20;1.90;;;9.20;85.20;;;;;;6124142;23;20018;-82
2023/04/03 12:46:44;;;;;;;4.13;1.95;;;9.10;83.10;;;;;;6123673;23;20006;-82
2023/04/03 12:49:38;;;;;;;5.50;2.05;;;9.00;87.50;;;;;;6124453;23;20020;-82
2023/04/03 12:52:30;;;;;;;7.60;1.92;;;9.10;87.60;;;;;;6109699;23;20024;-81
2023/04/03 12:54:57;;;;;;;6.15;2.30;;;9.10;85.70;;;;;;6099282;23;20028;-82
2023/04/03 12:57:27;;;;;;;7.22;2.78;;;9.20;87.00;;;;;;6099187;23;20010;-81
2023/04/03 12:59:54;;;;;;;5.82;2.10;;;9.20;86.60;;;;;;6123863;23;20021;-82
2023/04/03 13:02:33;;;;;;;6.90;3.42;;;9.30;86.50;;;;;;6123382;23;20021;-82
2023/04/03 13:05:09;;;;;;;4.28;1.80;;;9.30;84.90;;;;;;6123637;23;20069;-81
2023/04/03 13:07:40;;;;;;;4.72;2.00;;;9.40;86.40;;;;;;6099409;23;20010;-82
2023/04/03 13:10:09;;;;;;;7.05;2.20;;;9.30;86.00;;;;;;6099646;23;20049;-81